Weather History for Taos, NM

Change the Weather History Date:

Monday, May 13, 2013

  Actual Average Record
Temperature  
Mean Temperature 56 °F -  
Max Temperature 77 °F 69 °F 77 °F (1997)
Min Temperature 35 °F 34 °F 24 °F (2014)
Degree Days  
Heating Degree Days 9    
Growing Degree Days 6 (Base 50)    
Moisture  
Dew Point 27 °F    
Average Humidity 34    
Maximum Humidity 49    
Minimum Humidity 16    
Precipitation  
Precipitation 0.00 in - - ()
Sea Level Pressure  
Sea Level Pressure 30.36 in    
Wind  
Wind Speed 5 mph (NNE)    
Max Wind Speed 23 mph    
Max Gust Speed 16 mph    
Visibility 10 miles    
Events      
Averages and records for this station are not official NWS values.
T = Trace of Precipitation, MM = Missing Value Source: NWS Daily Summary

Daily Weather History Graph

Daily Weather History Graph

Search for Another Location

Airport:

Trip Planner

Search our weather history database for the weather conditions in past years. The results will help you decide how hot, cold, wet, or windy it might be!

Date:

Astronomy

May. 13, 2013 Rise Set
Actual Time 5:57 AM MDT 8:01 PM MDT
Civil Twilight 5:28 AM MDT 8:29 PM MDT
Nautical Twilight 4:53 AM MDT 9:04 PM MDT
Astronomical Twilight 4:16 AM MDT 9:42 PM MDT
Moon 8:46 AM MDT (5/13) 11:12 PM MDT (5/13)
Length of Visible Light 15h 01m
Length of Day
14h 03m
Waxing Crescent, 12% of the Moon is Illuminated
May 13
Waxing Crescent
May 17
First Quarter
May 24
Full
May 31
Last Quarter
Jun 8
New

Hourly Weather History & Observations

Time (MDT) Temp. Windchill Dew Point Humidity Pressure Visibility Wind Dir Wind Speed Gust Speed Precip Events Conditions
12:15 AM 48.2 °F - 24.8 °F 40% 30.37 in 10.0 mi Calm Calm - N/A   Clear
12:35 AM 46.4 °F - 21.2 °F 37% 30.37 in 10.0 mi Calm Calm - N/A   Clear
12:55 AM 44.6 °F 40.2 °F 21.2 °F 39% 30.37 in 10.0 mi NNE 8.1 mph - N/A   Clear
1:15 AM 44.6 °F 39.7 °F 24.8 °F 46% 30.37 in 10.0 mi NE 9.2 mph - N/A   Clear
1:35 AM 48.2 °F - 24.8 °F 40% 30.37 in 10.0 mi ENE 5.8 mph - N/A   Clear
1:55 AM 46.4 °F - 24.8 °F 43% 30.37 in 10.0 mi Calm Calm - N/A   Clear
2:15 AM 44.6 °F 43.1 °F 23.0 °F 43% 30.37 in 10.0 mi NE 3.5 mph - N/A   Clear
2:35 AM 46.4 °F - 24.8 °F 43% 30.37 in 10.0 mi Calm Calm - N/A   Clear
2:55 AM 42.8 °F 39.3 °F 21.2 °F 42% 30.37 in 10.0 mi North 5.8 mph - N/A   Clear
3:15 AM 41.0 °F 37.1 °F 21.2 °F 45% 30.37 in 10.0 mi North 5.8 mph - N/A   Clear
3:35 AM 39.2 °F 33.6 °F 21.2 °F 49% 30.38 in 10.0 mi North 8.1 mph - N/A   Clear
3:55 AM 37.4 °F 31.4 °F 19.4 °F 48% 30.38 in 10.0 mi NNE 8.1 mph - N/A   Clear
4:15 AM 39.2 °F 33.6 °F 19.4 °F 45% 30.38 in 10.0 mi NNE 8.1 mph - N/A   Clear
4:35 AM 39.2 °F 35.0 °F 19.4 °F 45% 30.39 in 10.0 mi North 5.8 mph - N/A   Clear
4:55 AM 37.4 °F 32.1 °F 19.4 °F 48% 30.39 in 10.0 mi NNE 6.9 mph - N/A   Clear
5:15 AM 39.2 °F 35.0 °F 19.4 °F 45% 30.39 in 10.0 mi NNE 5.8 mph - N/A   Clear
5:35 AM 37.4 °F 31.4 °F 19.4 °F 48% 30.40 in 10.0 mi North 8.1 mph - N/A   Clear
5:55 AM 37.4 °F 32.8 °F 19.4 °F 48% 30.41 in 10.0 mi North 5.8 mph - N/A   Clear
6:15 AM 35.6 °F 31.7 °F 17.6 °F 48% 30.41 in 10.0 mi North 4.6 mph - N/A   Clear
6:35 AM 37.4 °F 32.8 °F 19.4 °F 48% 30.42 in 10.0 mi North 5.8 mph - N/A   Clear
6:55 AM 41.0 °F - 21.2 °F 45% 30.42 in 10.0 mi Calm Calm - N/A   Clear
7:15 AM 44.6 °F - 24.8 °F 46% 30.42 in 10.0 mi Calm Calm - N/A   Clear
7:35 AM 48.2 °F - 26.6 °F 43% 30.43 in 10.0 mi North 4.6 mph - N/A   Clear
7:55 AM 48.2 °F - 26.6 °F 43% 30.43 in 10.0 mi North 5.8 mph - N/A   Clear
8:15 AM 51.8 °F - 26.6 °F 38% 30.43 in 10.0 mi NNW 5.8 mph - N/A   Clear
8:35 AM 55.4 °F - 28.4 °F 36% 30.43 in 10.0 mi North 5.8 mph - N/A   Clear
8:55 AM 57.2 °F - 28.4 °F 33% 30.43 in 10.0 mi NNW 4.6 mph - N/A   Clear
9:15 AM 60.8 °F - 30.2 °F 31% 30.43 in 10.0 mi Calm Calm - N/A   Clear
9:35 AM 62.6 °F - 30.2 °F 30% 30.42 in 10.0 mi Calm Calm - N/A   Clear
9:55 AM 64.4 °F - 30.2 °F 28% 30.42 in 10.0 mi SSW 3.5 mph - N/A   Clear
10:15 AM 66.2 °F - 30.2 °F 26% 30.41 in 10.0 mi West 4.6 mph - N/A   Clear
10:35 AM 66.2 °F - 30.2 °F 26% 30.40 in 10.0 mi SW 4.6 mph - N/A   Clear
10:55 AM 69.8 °F - 30.2 °F 23% 30.40 in 10.0 mi West 5.8 mph - N/A   Clear
11:15 AM 69.8 °F - 30.2 °F 23% 30.39 in 10.0 mi Calm Calm - N/A   Clear
11:35 AM 71.6 °F - 30.2 °F 22% 30.38 in 10.0 mi Calm Calm - N/A   Clear
11:55 AM 73.4 °F - 30.2 °F 20% 30.37 in 10.0 mi NW 3.5 mph - N/A   Clear
12:15 PM 71.6 °F - 30.2 °F 22% 30.36 in 10.0 mi WNW 3.5 mph - N/A   Clear
12:35 PM 73.4 °F - 30.2 °F 20% 30.36 in 10.0 mi NNW 5.8 mph - N/A   Clear
12:55 PM 75.2 °F - 30.2 °F 19% 30.35 in 10.0 mi NW 3.5 mph - N/A   Clear
1:15 PM 75.2 °F - 28.4 °F 18% 30.34 in 10.0 mi NNE 3.5 mph - N/A   Clear
1:35 PM 75.2 °F - 28.4 °F 18% 30.33 in 10.0 mi NNW 3.5 mph - N/A   Partly Cloudy
2:35 PM 77.0 °F - 28.4 °F 17% 30.31 in 10.0 mi Calm Calm - N/A   Partly Cloudy
2:55 PM 75.2 °F - 26.6 °F 17% 30.30 in 10.0 mi SW 5.8 mph - N/A   Clear
3:15 PM 77.0 °F - 26.6 °F 16% 30.30 in 10.0 mi East 3.5 mph - N/A   Clear
3:35 PM 75.2 °F - 28.4 °F 18% 30.30 in 10.0 mi WSW 15.0 mph - N/A   Scattered Clouds
3:55 PM 75.2 °F - 28.4 °F 18% 30.30 in 10.0 mi NW 23.0 mph - N/A   Overcast
4:15 PM 75.2 °F - 30.2 °F 19% 30.30 in 10.0 mi NNW 11.5 mph - N/A   Overcast
4:35 PM 73.4 °F - 28.4 °F 19% 30.31 in 10.0 mi North 10.4 mph - N/A   Overcast
4:55 PM 71.6 °F - 30.2 °F 22% 30.31 in 10.0 mi NE 6.9 mph - N/A   Overcast
5:35 PM 69.8 °F - 30.2 °F 23% 30.32 in 10.0 mi West 15.0 mph - N/A   Mostly Cloudy
6:15 PM 66.2 °F - 33.8 °F 30% 30.33 in 10.0 mi North 5.8 mph - N/A   Mostly Cloudy
6:35 PM 68.0 °F - 32.0 °F 26% 30.32 in 10.0 mi NW 4.6 mph 16.1 mph N/A   Clear
6:55 PM 66.2 °F - 32.0 °F 28% 30.32 in 10.0 mi ENE 8.1 mph - N/A   Partly Cloudy
7:15 PM 66.2 °F - 33.8 °F 30% 30.31 in 10.0 mi ENE 11.5 mph - N/A   Mostly Cloudy
7:35 PM 64.4 °F - 33.8 °F 32% 30.31 in 10.0 mi NE 9.2 mph - N/A   Overcast
7:55 PM 64.4 °F - 33.8 °F 32% 30.32 in 10.0 mi ENE 10.4 mph - N/A   Overcast
8:15 PM 62.6 °F - 33.8 °F 34% 30.32 in 10.0 mi East 9.2 mph - N/A   Scattered Clouds
8:35 PM 59.0 °F - 32.0 °F 36% 30.32 in 10.0 mi East 5.8 mph - N/A   Clear
8:55 PM 60.8 °F - 32.0 °F 34% 30.32 in 10.0 mi ENE 8.1 mph - N/A   Clear
9:15 PM 59.0 °F - 30.2 °F 34% 30.32 in 10.0 mi ENE 6.9 mph - N/A   Clear
9:35 PM 55.4 °F - 28.4 °F 36% 30.32 in 10.0 mi ESE 6.9 mph - N/A   Clear
9:55 PM 53.6 °F - 28.4 °F 38% 30.33 in 10.0 mi ENE 8.1 mph - N/A   Clear
10:15 PM 53.6 °F - 30.2 °F 41% 30.33 in 10.0 mi ENE 9.2 mph - N/A   Clear
10:35 PM 53.6 °F - 30.2 °F 41% 30.33 in 10.0 mi ENE 8.1 mph - N/A   Clear
10:55 PM 51.8 °F - 28.4 °F 41% 30.33 in 10.0 mi East 8.1 mph - N/A   Clear
11:15 PM 53.6 °F - 30.2 °F 41% 30.33 in 10.0 mi ENE 8.1 mph - N/A   Clear
11:35 PM 51.8 °F - 28.4 °F 41% 30.32 in 10.0 mi NE 4.6 mph - N/A   Clear
11:55 PM 48.2 °F - 26.6 °F 43% 30.32 in 10.0 mi NNE 9.2 mph - N/A   Clear